CheckWX is a tool to help pilots better visualize weather data.  It is not intended as a substitute for an official pre-flight weather briefing.

22:02:15 UTC

ENTO METAR
Sandefjord Torp Airport
Torp, Norway
Current

12 mins ago

ENTO 162150Z AUTO 36008KT 2700 BR VV004 07/07 Q1007
Observed
Oct-16 @ 21:50 UTC
Wind
  • 360° at 8 KTS
Visibility
2,700 meters
Flight Rules
LIFR
Conditions
Mist
Cloud Levels
  • Vertical visibility at 400' AGL
Temperature
C / 45°F
Dewpoint
C / 45°F
Humidity
100%
Altimeter
29.73" Hg
Pressure
1006.92 hPa
Previous

42 mins ago

ENTO 162120Z AUTO 01008KT 3300 BR OVC002/// 07/07 Q1007 RERA
Observed
Oct-16 @ 21:20 UTC
Wind
  • 010° at 8 KTS
Visibility
3,300 meters
Flight Rules
LIFR
Conditions
Mist
Cloud Levels
  • Overcast at 200' AGL
Temperature
C / 45°F
Dewpoint
C / 45°F
Humidity
100%
Altimeter
29.73" Hg
Pressure
1006.92 hPa
Previous

1 hour ago

ENTO 162050Z 36009KT 5000 -DZ OVC004 06/06 Q1007 TEMPO 4000 -RA BR
Observed
Oct-16 @ 20:50 UTC
Wind
  • 360° at 9 KTS
Visibility
5,000 meters
Flight Rules
LIFR
Conditions
Light Drizzle
Cloud Levels
  • Overcast at 400' AGL
Temperature
C / 43°F
Dewpoint
C / 43°F
Humidity
100%
Altimeter
29.73" Hg
Pressure
1006.92 hPa